createdAt,value
2018-08-03T06:40:18.590Z,98576.37
2018-08-03T06:41:21.255Z,98573.30
2018-08-03T06:42:23.799Z,98572.41
2018-08-03T06:43:26.306Z,98456.23
2018-08-03T06:44:29.775Z,98575.91
2018-08-03T06:45:32.783Z,98579.18
2018-08-03T06:46:38.331Z,98579.14
2018-08-03T06:47:41.857Z,98575.73
2018-08-03T06:48:44.377Z,98576.66
2018-08-03T06:49:50.540Z,98570.86
2018-08-03T06:50:53.036Z,98572.72
2018-08-03T06:51:55.866Z,98571.10
2018-08-03T06:52:58.408Z,98573.97
2018-08-03T06:54:00.970Z,98573.88
2018-08-03T06:55:03.503Z,98571.20
2018-08-03T06:56:06.058Z,98572.94
2018-08-03T06:57:08.609Z,98570.63
2018-08-03T06:58:11.454Z,98569.04
2018-08-03T06:59:15.007Z,98576.78
2018-08-03T07:00:17.573Z,98573.53
2018-08-03T07:01:20.231Z,98569.63
2018-08-03T07:02:22.792Z,98568.22
2018-08-03T07:03:26.427Z,98567.64
2018-08-03T07:04:29.328Z,98566.38
2018-08-03T07:05:31.936Z,98563.70
2018-08-03T07:06:34.487Z,98566.66
2018-08-03T07:07:37.949Z,98569.05
2018-08-03T07:08:40.453Z,98427.02
2018-08-03T07:09:42.982Z,98574.05
2018-08-03T07:10:48.071Z,98562.34
2018-08-03T07:11:50.591Z,98570.36
2018-08-03T07:12:53.127Z,98566.96
2018-08-03T07:13:55.677Z,98562.73
2018-08-03T07:14:58.257Z,98559.22
2018-08-03T07:16:00.806Z,98568.22
2018-08-03T07:17:03.617Z,98564.42
2018-08-03T07:18:06.140Z,98560.69
2018-08-03T07:19:08.672Z,98569.66
2018-08-03T07:20:11.573Z,98566.91
2018-08-03T07:21:15.311Z,98560.87
2018-08-03T07:22:18.832Z,98559.94
2018-08-03T07:23:21.699Z,98432.23
2018-08-03T07:24:24.283Z,98565.87
2018-08-03T07:25:26.847Z,98565.10
2018-08-03T07:26:29.410Z,98568.94
2018-08-03T07:27:32.923Z,98570.81
2018-08-03T07:28:35.476Z,98568.35
2018-08-03T07:29:39.288Z,98562.23
2018-08-03T07:30:41.837Z,98564.12
2018-08-03T07:31:44.715Z,98560.11
2018-08-03T07:32:47.276Z,98562.50
2018-08-03T07:33:49.771Z,98564.31
2018-08-03T09:10:57.407Z,98519.34
2018-08-03T09:12:00.698Z,98519.61
2018-08-03T09:13:06.640Z,98521.87
2018-08-03T09:14:09.781Z,98522.27
2018-08-03T09:15:12.844Z,98524.66
2018-08-03T09:16:16.667Z,98521.78
2018-08-03T09:17:20.174Z,98519.19
2018-08-03T09:18:22.762Z,98517.55
2018-08-03T09:19:25.317Z,98517.82
2018-08-03T09:20:27.851Z,98517.82
2018-08-03T09:21:31.439Z,98512.86
2018-08-03T09:22:34.247Z,98515.06
2018-08-03T09:23:37.401Z,98511.75
2018-08-03T09:24:40.571Z,98512.59
2018-08-03T09:25:43.283Z,98511.24
2018-08-03T09:26:46.431Z,98507.14
2018-08-03T09:27:48.949Z,98504.63
2018-08-03T09:28:51.803Z,98504.06
2018-08-03T09:29:54.378Z,98501.94
2018-08-03T09:30:57.257Z,98505.59
2018-08-03T09:31:59.801Z,98502.25
2018-08-03T09:33:02.362Z,98505.05
2018-08-03T09:34:05.502Z,98501.31
2018-08-03T09:35:08.467Z,98510.69
2018-08-03T09:36:11.040Z,98507.42
2018-08-03T09:37:13.573Z,98500.33
2018-08-03T09:38:16.087Z,98504.63
2018-08-03T09:39:19.292Z,98500.25
2018-08-03T09:40:25.788Z,98504.08
2018-08-03T09:41:29.363Z,98499.94
2018-08-03T09:42:35.444Z,98493.91
2018-08-03T09:43:38.473Z,98496.59
2018-08-03T09:44:40.981Z,98493.91
2018-08-03T09:45:43.800Z,98494.30
2018-08-03T09:46:47.363Z,98489.89
2018-08-03T09:47:50.218Z,98495.25
2018-08-03T09:48:52.824Z,98500.61
2018-08-03T09:49:55.410Z,98492.30
2018-08-03T09:51:00.554Z,98355.79
2018-08-03T09:52:07.184Z,98489.89
2018-08-03T09:53:09.757Z,98486.73
2018-08-03T09:54:12.277Z,98484.42
2018-08-03T09:55:15.866Z,98487.77
2018-08-03T09:56:18.410Z,98487.77
2018-08-03T09:57:21.024Z,98487.77
2018-08-03T09:58:25.306Z,98488.36
2018-08-03T09:59:29.530Z,98485.28
2018-08-03T10:00:33.612Z,98487.09
2018-08-03T10:01:37.000Z,98485.75
2018-08-03T10:02:40.210Z,98480.12
2018-08-03T10:03:43.380Z,98477.08
2018-08-03T10:04:47.367Z,98477.44
2018-08-03T10:05:53.797Z,98478.22
2018-08-03T10:06:56.351Z,98477.23
2018-08-03T10:07:58.952Z,98478.86
2018-08-03T10:09:01.515Z,98361.52
2018-08-03T10:10:04.901Z,98471.61
2018-08-03T10:11:07.745Z,98474.95
2018-08-03T10:12:12.344Z,98477.64
2018-08-03T10:13:16.129Z,98368.96
2018-08-03T10:14:18.699Z,98439.37
2018-08-03T10:15:22.340Z,98474.36
2018-08-03T10:16:25.887Z,98472.08
2018-08-03T10:17:28.729Z,98475.78
2018-08-03T10:18:31.299Z,98481.06
2018-08-03T10:19:33.869Z,98477.79
2018-08-03T10:20:36.400Z,98473.02
2018-08-03T10:21:39.439Z,98469.75
2018-08-03T10:22:41.968Z,98473.84
2018-08-03T10:23:44.802Z,98467.06
2018-08-03T10:24:47.330Z,98414.95
2018-08-03T10:25:49.864Z,98460.95
2018-08-03T10:26:52.407Z,98460.95
2018-08-03T10:27:55.411Z,98465.34
2018-08-03T10:28:59.564Z,98457.02
2018-08-03T10:30:02.383Z,98465.65
2018-08-03T10:31:05.952Z,98461.43
2018-08-03T10:32:08.482Z,98460.45
2018-08-03T10:33:11.857Z,98457.69
2018-08-03T10:34:14.396Z,98456.14
2018-08-03T10:35:17.921Z,98460.52
2018-08-03T10:36:22.562Z,98458.98
2018-08-03T10:37:25.083Z,98454.41
2018-08-03T10:38:27.662Z,98458.11
2018-08-03T10:39:30.522Z,98456.50
2018-08-03T10:40:33.053Z,98466.39
2018-08-03T10:41:35.749Z,98457.48
2018-08-03T10:42:38.763Z,98458.44
2018-08-03T19:57:41.248Z,98255.52
2018-08-03T19:58:44.632Z,98249.54
2018-08-03T19:59:47.341Z,98252.31
2018-08-03T20:00:49.888Z,98254.05
2018-08-03T20:01:52.440Z,98254.28
2018-08-03T20:02:56.292Z,98249.63
2018-08-03T20:03:59.035Z,98251.88
2018-08-03T20:05:05.032Z,98248.95
2018-08-03T20:06:07.622Z,98249.59
2018-08-03T20:07:10.737Z,98247.98
2018-08-03T20:08:16.391Z,98246.52
2018-08-03T20:09:19.324Z,98144.54
2018-08-03T20:10:21.861Z,98103.16
2018-08-03T20:11:24.400Z,98244.48
2018-08-03T20:12:28.076Z,98252.89
2018-08-03T20:13:30.658Z,98249.25
2018-08-03T20:14:33.595Z,98244.62
2018-08-03T20:15:37.211Z,98245.62
2018-08-03T20:16:41.718Z,98242.93
2018-08-03T20:17:44.418Z,98241.59
2018-08-03T20:18:48.571Z,98245.23
2018-08-03T21:04:55.261Z,98275.62
2018-08-03T21:05:57.816Z,98273.61
2018-08-03T21:07:00.337Z,98124.54
2018-08-03T21:08:02.924Z,98270.63
2018-08-03T21:09:05.472Z,98271.60
2018-08-03T21:10:09.202Z,98280.92
2018-08-03T21:11:12.452Z,98262.73
2018-08-03T21:12:15.451Z,98267.64
2018-08-03T21:13:19.580Z,98123.39
2018-08-03T21:14:26.524Z,98266.95
2018-08-03T21:15:30.271Z,98269.16
2018-08-03T21:16:36.515Z,98267.69
2018-08-03T21:17:39.570Z,98270.37
2018-08-03T21:18:42.670Z,98267.22
2018-08-03T21:19:46.541Z,98267.60
2018-08-03T21:20:49.558Z,98268.94
2018-08-03T21:21:52.608Z,98263.93
2018-08-03T21:22:55.305Z,98150.48
2018-08-03T21:23:58.935Z,98264.79
2018-08-03T21:25:01.613Z,98256.27
2018-08-03T21:26:04.164Z,98139.50
2018-08-03T21:27:06.704Z,98254.23
2018-08-03T21:28:09.479Z,98253.75
2018-08-03T21:29:11.977Z,98244.36
2018-08-03T21:30:14.580Z,98248.39
2018-08-03T21:31:17.172Z,98246.06
2018-08-03T21:32:20.215Z,98250.08
